createdAt,value
2018-10-16T12:13:19.130Z,4.50
2018-10-16T12:14:19.100Z,5.50
2018-10-16T12:15:19.114Z,5.10
2018-10-16T12:16:19.068Z,4.90
2018-10-16T12:17:19.058Z,4.60
2018-10-16T12:18:19.038Z,5.00
2018-10-16T12:19:19.068Z,4.90
2018-10-16T12:20:19.013Z,4.90
2018-10-16T12:21:27.790Z,5.20
2018-10-16T12:22:18.985Z,4.80
2018-10-16T12:23:18.970Z,4.40
2018-10-16T12:24:18.957Z,5.20
2018-10-16T12:25:18.947Z,5.00
2018-10-16T12:26:18.947Z,5.00
2018-10-16T12:27:18.921Z,5.30
2018-10-16T12:28:18.908Z,4.70
2018-10-16T12:29:18.896Z,4.60
2018-10-16T12:30:18.900Z,5.10
2018-10-16T12:31:18.874Z,4.80
2018-10-16T12:32:18.902Z,4.70
2018-10-16T12:33:18.851Z,4.90
2018-10-16T12:34:18.840Z,5.00
2018-10-16T12:35:18.843Z,4.90
2018-10-16T12:36:18.820Z,4.90
2018-10-16T12:37:18.805Z,4.70
2018-10-16T12:38:18.810Z,6.20
2018-10-16T12:39:18.871Z,4.70
2018-10-16T12:40:18.870Z,4.60
2018-10-16T12:41:18.759Z,4.50
2018-10-16T12:42:18.750Z,4.70
2018-10-16T12:43:18.786Z,4.50
2018-10-16T12:44:18.726Z,4.80
2018-10-16T12:45:18.716Z,4.90
2018-10-16T12:46:18.722Z,4.40
2018-10-16T12:47:18.696Z,4.80
2018-10-16T12:48:18.683Z,5.10
2018-10-16T12:49:18.673Z,4.40
2018-10-16T12:50:18.679Z,4.60
2018-10-16T12:51:18.669Z,4.90
2018-10-16T12:52:18.643Z,4.90
2018-10-16T12:53:18.636Z,4.70
2018-10-16T12:54:18.625Z,4.40
2018-10-16T12:55:18.611Z,4.00
2018-10-16T12:56:18.627Z,4.30
2018-10-16T12:57:18.640Z,3.90
2018-10-16T12:58:18.593Z,4.50
2018-10-16T12:59:18.573Z,4.30
2018-10-16T13:00:18.564Z,4.50
2018-10-16T13:01:18.557Z,3.90
2018-10-16T13:02:18.559Z,4.50
2018-10-16T13:03:18.532Z,4.00
2018-10-16T13:04:18.521Z,4.10
2018-10-16T13:05:18.513Z,4.20
2018-10-16T13:06:18.504Z,4.40
2018-10-16T13:07:18.508Z,4.00
2018-10-16T13:08:18.483Z,4.10
2018-10-16T13:09:18.474Z,3.90
2018-10-16T13:10:18.466Z,4.20
2018-10-16T13:11:18.460Z,4.40
2018-10-16T13:12:18.461Z,4.40
2018-10-16T13:13:18.436Z,3.90
2018-10-16T13:14:18.467Z,3.90
2018-10-16T13:15:18.417Z,4.40
2018-10-16T13:16:18.408Z,4.30
2018-10-16T13:17:18.439Z,3.90
2018-10-16T13:18:18.399Z,4.40
2018-10-16T13:19:18.381Z,4.00
2018-10-16T13:20:18.371Z,4.00
2018-10-16T13:21:18.362Z,4.10
2018-10-16T13:22:18.367Z,4.10
2018-10-16T13:23:18.361Z,4.30
2018-10-16T13:24:18.335Z,4.30
2018-10-16T13:25:18.324Z,4.10
2018-10-16T13:26:18.317Z,4.50
2018-10-16T13:27:18.319Z,4.00
2018-10-16T13:28:18.297Z,4.30
2018-10-16T13:29:18.415Z,4.00
2018-10-16T13:30:18.280Z,4.20
2018-10-16T13:31:18.268Z,4.40
2018-10-16T13:32:18.277Z,4.30
2018-10-16T13:33:18.251Z,4.30
2018-10-16T13:34:18.242Z,4.40
2018-10-16T13:35:18.232Z,4.00
2018-10-16T13:36:18.222Z,4.10
2018-10-16T13:37:18.211Z,4.20
2018-10-16T13:38:18.218Z,4.60
2018-10-16T13:39:18.192Z,4.10
2018-10-16T13:40:18.194Z,4.50
2018-10-16T13:41:18.175Z,4.00
2018-10-16T13:42:18.201Z,4.50
2018-10-16T13:43:18.173Z,4.50
2018-10-16T13:44:18.148Z,4.10
2018-10-16T13:45:18.132Z,4.50
2018-10-16T13:46:18.215Z,4.10
2018-10-16T13:47:18.118Z,4.20
2018-10-16T13:48:18.107Z,4.50
2018-10-16T13:49:18.112Z,4.20
2018-10-16T13:50:18.100Z,4.40
2018-10-16T13:51:18.082Z,3.80
2018-10-16T13:52:18.073Z,4.10
2018-10-16T13:53:18.064Z,4.10
2018-10-16T13:54:18.073Z,4.60
2018-10-16T13:55:18.047Z,4.50
2018-10-16T13:56:18.040Z,4.50
2018-10-16T13:57:18.030Z,3.90
2018-10-16T13:58:18.023Z,4.50
2018-10-16T13:59:18.050Z,4.50
2018-10-16T14:00:18.006Z,4.40
2018-10-16T14:01:17.998Z,4.30
2018-10-16T14:02:17.993Z,4.30
2018-10-16T14:03:17.984Z,4.00
2018-10-16T14:04:17.975Z,4.40
2018-10-16T14:05:17.981Z,4.10
2018-10-16T14:06:17.961Z,4.50
2018-10-16T14:07:17.948Z,4.00
2018-10-16T14:08:17.939Z,4.60
2018-10-16T14:09:17.933Z,4.50
2018-10-16T14:10:17.939Z,4.30
2018-10-16T14:11:17.915Z,4.40
2018-10-16T14:12:17.908Z,4.50
2018-10-16T14:13:17.902Z,3.70
2018-10-16T14:14:17.937Z,4.30
2018-10-16T14:15:17.896Z,4.20
2018-10-16T14:16:18.001Z,3.90
2018-10-16T14:17:17.864Z,4.20
2018-10-16T14:18:17.856Z,4.80
2018-10-16T14:19:17.847Z,4.30
2018-10-16T14:20:17.855Z,4.40
2018-10-16T14:21:17.826Z,4.40
2018-10-16T14:22:17.835Z,4.50
2018-10-16T14:23:17.822Z,4.60
2018-10-16T14:24:17.800Z,4.70
2018-10-16T14:25:17.807Z,4.30
2018-10-16T14:26:17.837Z,4.80
2018-10-16T14:27:17.778Z,5.00
2018-10-16T14:28:17.771Z,4.30
2018-10-16T14:29:17.759Z,4.30
2018-10-16T14:30:17.767Z,4.70
2018-10-16T14:31:17.743Z,4.70
2018-10-16T14:32:17.817Z,4.50
2018-10-16T14:33:17.723Z,4.50
2018-10-16T14:34:17.845Z,4.40
2018-10-16T14:35:17.706Z,4.90
2018-10-16T14:36:17.702Z,4.30
2018-10-16T14:37:17.688Z,4.10
2018-10-16T14:38:17.752Z,4.40
2018-10-16T14:39:17.666Z,4.60
2018-10-16T14:40:17.710Z,4.80
2018-10-16T14:41:17.655Z,4.50
2018-10-16T14:42:17.643Z,4.40
2018-10-16T14:43:17.629Z,4.90
2018-10-16T14:44:17.625Z,4.80
2018-10-16T14:45:17.623Z,4.40
2018-10-16T14:46:17.605Z,4.50
2018-10-16T14:47:17.594Z,5.20
2018-10-16T14:48:17.583Z,4.60
2018-10-16T14:49:17.573Z,4.80
2018-10-16T14:50:17.584Z,4.70
2018-10-16T14:51:17.553Z,4.70
2018-10-16T14:52:17.545Z,4.70
2018-10-16T14:53:17.532Z,4.30
2018-10-16T14:54:17.521Z,4.60
2018-10-16T14:55:17.510Z,4.30
2018-10-16T14:56:17.512Z,5.00
2018-10-16T14:57:17.488Z,4.20
2018-10-16T14:58:17.520Z,4.40
2018-10-16T14:59:17.470Z,4.60
2018-10-16T15:00:17.459Z,4.40
2018-10-16T15:01:17.460Z,4.50
2018-10-16T15:02:17.440Z,4.70
2018-10-16T15:03:17.423Z,4.60
2018-10-16T15:04:17.414Z,4.70
2018-10-16T15:05:17.406Z,4.90
2018-10-16T15:06:17.409Z,4.60
2018-10-16T15:07:17.387Z,4.40
2018-10-16T15:08:17.520Z,4.90
2018-10-16T15:09:17.361Z,4.40
2018-10-16T15:10:17.391Z,4.50
2018-10-16T15:11:17.355Z,4.90
2018-10-16T15:12:17.326Z,4.50
2018-10-16T15:13:17.317Z,5.10
2018-10-16T15:14:17.306Z,5.80
2018-10-16T15:15:17.293Z,5.60
2018-10-16T15:16:17.419Z,5.30
2018-10-16T15:17:17.273Z,5.50
2018-10-16T15:18:17.259Z,5.40
2018-10-16T15:19:17.247Z,5.20
2018-10-16T15:20:17.316Z,5.60
2018-10-16T15:21:17.229Z,5.80
2018-10-16T15:22:17.344Z,5.40
2018-10-16T15:23:17.201Z,6.20
2018-10-16T15:24:17.193Z,6.20
2018-10-16T15:25:17.181Z,6.30
2018-10-16T15:26:17.170Z,5.40
2018-10-16T15:27:17.171Z,5.40
2018-10-16T15:28:17.190Z,5.00
2018-10-16T15:29:17.136Z,5.20
2018-10-16T15:30:17.121Z,5.30
2018-10-16T15:31:17.110Z,7.90
2018-10-16T15:32:17.134Z,7.60
2018-10-16T15:33:17.087Z,6.90
2018-10-16T15:34:17.077Z,5.60
2018-10-16T15:35:17.071Z,6.50
2018-10-16T15:36:17.068Z,8.20
2018-10-16T15:37:17.048Z,6.90
2018-10-16T15:38:17.041Z,6.40
2018-10-16T15:39:17.017Z,6.10
2018-10-16T15:40:17.004Z,7.10
2018-10-16T15:41:17.066Z,6.60
2018-10-16T15:42:17.031Z,6.60
2018-10-16T15:43:16.982Z,6.60
2018-10-16T15:44:16.956Z,6.30
2018-10-16T15:45:16.959Z,6.30
2018-10-16T15:46:16.931Z,6.90
2018-10-16T15:47:16.921Z,6.40
2018-10-16T15:48:16.928Z,6.00
2018-10-16T15:49:16.895Z,5.80
2018-10-16T15:50:16.884Z,6.40
2018-10-16T15:51:16.872Z,6.30
2018-10-16T15:52:16.936Z,6.40
2018-10-16T15:53:16.849Z,5.70
2018-10-16T15:54:16.848Z,6.30
2018-10-16T15:55:16.827Z,6.40
2018-10-16T15:56:16.807Z,6.80
2018-10-16T15:57:16.794Z,6.80
2018-10-16T15:58:16.840Z,6.30
2018-10-16T15:59:16.786Z,5.70
2018-10-16T16:00:16.802Z,4.90
2018-10-16T16:01:16.744Z,5.30
2018-10-16T16:02:16.745Z,5.20
2018-10-16T16:03:16.718Z,5.40
2018-10-16T16:04:16.721Z,5.50
2018-10-16T16:05:16.693Z,5.70
2018-10-16T16:06:16.681Z,5.70
2018-10-16T16:07:16.676Z,5.70
2018-10-16T16:08:16.657Z,5.60
2018-10-16T16:09:16.661Z,5.60
2018-10-16T16:10:16.681Z,5.80
2018-10-16T16:11:16.616Z,5.30
2018-10-16T16:12:16.605Z,5.30
2018-10-16T16:13:16.592Z,6.80
2018-10-16T16:14:16.585Z,6.50
2018-10-16T16:15:16.578Z,8.00
2018-10-16T16:16:16.561Z,7.50
2018-10-16T16:17:16.539Z,7.60
2018-10-16T16:18:16.565Z,7.30
2018-10-16T16:19:16.519Z,6.80
2018-10-16T16:20:16.517Z,6.70
2018-10-16T16:21:16.494Z,5.90
2018-10-16T16:22:16.472Z,6.00
2018-10-16T16:23:16.462Z,6.20
2018-10-16T16:24:16.466Z,5.90
2018-10-16T16:25:16.434Z,5.80
2018-10-16T16:26:16.476Z,6.10
2018-10-16T16:27:16.409Z,5.70
2018-10-16T16:28:16.484Z,5.80
2018-10-16T16:29:16.400Z,6.00
2018-10-16T16:30:16.438Z,6.20
2018-10-16T16:31:16.352Z,5.90
2018-10-16T16:32:16.381Z,6.10
2018-10-16T16:33:16.325Z,6.20
2018-10-16T16:34:16.312Z,5.90
2018-10-16T16:35:16.314Z,6.50
2018-10-16T16:36:16.293Z,6.30
2018-10-16T16:37:16.273Z,6.20
2018-10-16T16:38:16.404Z,6.60
2018-10-16T16:39:16.276Z,7.10
2018-10-16T16:40:16.253Z,6.70
2018-10-16T16:41:16.217Z,6.60
2018-10-16T16:42:16.202Z,6.80
2018-10-16T16:43:16.191Z,6.50
2018-10-16T16:44:16.273Z,6.90
2018-10-16T16:45:16.173Z,7.70
2018-10-16T16:46:16.147Z,6.70
2018-10-16T16:47:16.131Z,6.80
2018-10-16T16:48:16.117Z,6.10
2018-10-16T16:49:16.105Z,5.50
2018-10-16T16:50:16.109Z,5.80
2018-10-16T16:51:16.139Z,5.60
2018-10-16T16:52:16.068Z,6.50
2018-10-16T16:53:16.148Z,5.30
2018-10-16T16:54:16.035Z,5.50
2018-10-16T16:55:16.018Z,5.50
2018-10-16T16:56:16.066Z,5.30
2018-10-16T16:57:15.991Z,5.40
2018-10-16T16:58:15.978Z,5.10
2018-10-16T16:59:15.963Z,5.70
2018-10-16T17:00:15.950Z,5.70
2018-10-16T17:01:15.953Z,5.60
2018-10-16T17:02:15.920Z,5.80
2018-10-16T17:03:15.904Z,6.20
2018-10-16T17:04:15.891Z,5.70
2018-10-16T17:05:15.876Z,5.70
2018-10-16T17:06:15.880Z,5.90
2018-10-16T17:07:15.853Z,6.10
2018-10-16T17:08:15.840Z,6.00
2018-10-16T17:09:15.819Z,7.40
2018-10-16T17:10:15.886Z,6.70
2018-10-16T17:11:15.791Z,7.00
2018-10-16T17:12:15.789Z,6.60
2018-10-16T17:13:15.760Z,7.10
2018-10-16T17:14:15.748Z,6.40
2018-10-16T17:15:15.748Z,6.50
2018-10-16T17:16:15.718Z,6.50
2018-10-16T17:17:15.721Z,6.10
2018-10-16T17:18:15.707Z,6.30
2018-10-16T17:19:15.680Z,6.50
2018-10-16T17:20:15.663Z,5.90
2018-10-16T17:21:15.642Z,6.20
2018-10-16T17:22:15.647Z,6.70
2018-10-16T17:23:15.611Z,7.10
2018-10-16T17:24:15.604Z,6.50
2018-10-16T17:25:15.715Z,6.60
2018-10-16T17:26:15.849Z,6.90
2018-10-16T17:27:15.556Z,6.80
2018-10-16T17:28:15.653Z,6.80
2018-10-16T17:29:15.524Z,7.10
2018-10-16T17:30:15.508Z,6.60
2018-10-16T17:31:15.490Z,7.00
2018-10-16T17:32:15.479Z,6.40
2018-10-16T17:33:15.522Z,7.10
2018-10-16T17:34:15.454Z,6.80
2018-10-16T17:35:15.430Z,6.90
2018-10-16T17:36:15.415Z,6.40
2018-10-16T17:37:15.404Z,6.80
2018-10-16T17:38:15.407Z,6.80
2018-10-16T17:39:15.433Z,7.30
2018-10-16T17:40:15.360Z,7.10
2018-10-16T17:41:15.341Z,7.40
2018-10-16T17:42:15.327Z,6.90
2018-10-16T17:43:15.357Z,7.10
2018-10-16T17:44:15.316Z,6.90
2018-10-16T17:45:15.321Z,6.90
2018-10-16T17:46:15.288Z,6.90
2018-10-16T17:47:15.253Z,7.20
2018-10-16T17:48:15.296Z,6.60
2018-10-16T17:49:15.220Z,7.30
2018-10-16T17:50:15.204Z,6.40
2018-10-16T17:51:15.193Z,6.80
2018-10-16T17:52:15.175Z,7.20
2018-10-16T17:53:15.175Z,7.10
2018-10-16T17:54:15.145Z,7.00
2018-10-16T17:55:15.131Z,7.20
2018-10-16T17:56:15.112Z,7.30
2018-10-16T17:57:15.100Z,7.10
2018-10-16T17:58:15.096Z,7.20
2018-10-16T17:59:15.066Z,7.50
2018-10-16T18:00:15.052Z,7.30
2018-10-16T18:01:15.061Z,7.60
2018-10-16T18:02:15.028Z,7.40
2018-10-16T18:03:15.093Z,7.90
2018-10-16T18:04:14.992Z,7.40
2018-10-16T18:05:14.978Z,7.60
2018-10-16T18:06:14.962Z,7.40
2018-10-16T18:07:14.944Z,7.80
2018-10-16T18:08:14.948Z,7.90
2018-10-16T18:09:14.913Z,7.90
2018-10-16T18:10:14.901Z,7.80
2018-10-16T18:11:14.884Z,7.60
2018-10-16T18:12:14.866Z,7.50
2018-10-16T18:13:14.867Z,7.40
2018-10-16T18:14:14.836Z,7.60
2018-10-16T18:15:14.898Z,7.30
2018-10-16T18:16:14.809Z,7.40
2018-10-16T18:17:14.792Z,8.20
2018-10-16T18:18:14.839Z,7.20
2018-10-16T18:19:14.761Z,7.40
2018-10-16T18:20:14.748Z,7.40
2018-10-16T18:21:14.727Z,7.50
2018-10-16T18:22:24.928Z,7.50
2018-10-16T18:23:14.696Z,7.60
2018-10-16T18:24:14.683Z,7.70
2018-10-16T18:25:14.670Z,7.90
2018-10-16T18:26:14.647Z,7.80
2018-10-16T18:27:14.635Z,7.60
2018-10-16T18:28:14.631Z,7.10
2018-10-16T18:29:14.602Z,7.80
2018-10-16T18:30:14.592Z,7.20
2018-10-16T18:31:14.570Z,7.60
2018-10-16T18:32:14.558Z,7.50
2018-10-16T18:33:14.625Z,7.50
2018-10-16T18:34:14.524Z,7.50
2018-10-16T18:35:14.508Z,7.50
2018-10-16T18:36:14.496Z,7.20
2018-10-16T18:37:14.475Z,7.00
2018-10-16T18:38:14.476Z,7.70
2018-10-16T18:39:14.603Z,7.50
2018-10-16T18:40:14.434Z,7.70
2018-10-16T18:41:14.413Z,8.10
2018-10-16T18:42:14.397Z,8.70
2018-10-16T18:43:14.399Z,7.90
2018-10-16T18:44:14.373Z,7.80
2018-10-16T18:45:14.388Z,8.30
2018-10-16T18:46:14.335Z,7.90
2018-10-16T18:47:14.318Z,8.20
2018-10-16T18:48:14.305Z,8.50
2018-10-16T18:49:14.303Z,7.90
2018-10-16T18:50:14.272Z,8.60
2018-10-16T18:51:14.331Z,8.40
2018-10-16T18:52:14.247Z,8.70
2018-10-16T18:53:14.225Z,9.20
2018-10-16T18:54:14.254Z,8.80
2018-10-16T18:55:14.200Z,8.90
2018-10-16T18:56:14.187Z,9.10
2018-10-16T18:57:14.257Z,9.10
2018-10-16T18:58:14.188Z,9.50
2018-10-16T18:59:14.129Z,9.50
2018-10-16T19:00:14.123Z,9.30
2018-10-16T19:01:14.100Z,8.80
2018-10-16T19:02:14.152Z,9.10
2018-10-16T19:03:14.134Z,9.40
2018-10-16T19:04:14.069Z,8.90
2018-10-16T19:05:14.037Z,9.50
2018-10-16T19:06:14.024Z,8.70
2018-10-16T19:07:14.007Z,9.30
2018-10-16T19:08:13.999Z,8.30
2018-10-16T19:09:14.097Z,8.20
2018-10-16T19:10:13.957Z,8.80
2018-10-16T19:11:13.942Z,8.10
2018-10-16T19:12:13.927Z,8.90
2018-10-16T19:13:13.906Z,8.80
2018-10-16T19:14:13.908Z,8.70
2018-10-16T19:15:14.046Z,9.10
2018-10-16T19:16:13.863Z,8.80
2018-10-16T19:17:13.844Z,8.60
2018-10-16T19:18:13.830Z,8.60
2018-10-16T19:19:13.834Z,8.80
2018-10-16T19:20:13.870Z,8.90
2018-10-16T19:21:13.855Z,9.10
2018-10-16T19:22:13.763Z,8.90
2018-10-16T19:23:13.751Z,8.20
2018-10-16T19:24:13.756Z,9.20
2018-10-16T19:25:13.714Z,9.60
2018-10-16T19:26:13.699Z,9.80
2018-10-16T19:27:13.793Z,9.70
2018-10-16T19:28:13.668Z,9.80
2018-10-16T19:29:13.650Z,9.00
2018-10-16T19:30:13.654Z,9.30
2018-10-16T19:31:13.619Z,9.30
2018-10-16T19:32:13.605Z,9.60
2018-10-16T19:33:13.657Z,9.60
2018-10-16T19:34:13.568Z,9.80
2018-10-16T19:35:13.569Z,10.40
2018-10-16T19:36:13.542Z,10.10
2018-10-16T19:37:13.524Z,10.60
2018-10-16T19:38:13.504Z,10.50
2018-10-16T19:39:13.505Z,11.00
2018-10-16T19:40:13.487Z,10.80
2018-10-16T19:41:13.460Z,11.30
2018-10-16T19:42:13.441Z,11.60
2018-10-16T19:43:13.424Z,10.90
2018-10-16T19:44:13.407Z,11.40
2018-10-16T19:45:13.479Z,12.10
2018-10-16T19:46:13.377Z,11.60
2018-10-16T19:47:13.364Z,12.50
2018-10-16T19:48:13.340Z,10.90
2018-10-16T19:49:13.348Z,13.10
2018-10-16T19:50:13.325Z,12.70
2018-10-16T19:51:13.370Z,11.60
2018-10-16T19:52:13.282Z,11.20
2018-10-16T19:53:13.272Z,11.30
2018-10-16T19:54:13.245Z,11.20
2018-10-16T19:55:13.242Z,11.60
2018-10-16T19:56:13.209Z,12.00
2018-10-16T19:57:13.284Z,11.50
2018-10-16T19:58:13.182Z,11.50
2018-10-16T19:59:13.164Z,11.40
2018-10-16T20:00:13.180Z,11.70
2018-10-16T20:01:13.128Z,11.40
2018-10-16T20:02:13.110Z,12.40
2018-10-16T20:03:13.178Z,11.90
2018-10-16T20:04:13.081Z,11.50
2018-10-16T20:05:13.073Z,11.50
2018-10-16T20:06:13.045Z,11.90
2018-10-16T20:07:13.094Z,12.60
2018-10-16T20:08:13.010Z,12.40
2018-10-16T20:09:13.073Z,12.30
2018-10-16T20:10:12.994Z,11.90
2018-10-16T20:11:12.961Z,12.90
2018-10-16T20:12:12.947Z,12.70
2018-10-16T20:13:12.927Z,12.00
2018-10-16T20:14:13.000Z,12.70
2018-10-16T20:15:12.896Z,12.10
2018-10-16T20:16:12.897Z,12.20
2018-10-16T20:17:12.861Z,11.60
2018-10-16T20:18:12.845Z,12.80
2018-10-16T20:19:12.829Z,11.80
2018-10-16T20:20:12.811Z,12.90
2018-10-16T20:21:12.807Z,12.30
2018-10-16T20:22:12.779Z,12.60
2018-10-16T20:23:12.761Z,12.30
2018-10-16T20:24:12.769Z,12.40
2018-10-16T20:25:12.804Z,12.80
2018-10-16T20:26:12.721Z,12.20
2018-10-16T20:27:12.690Z,12.20
2018-10-16T20:28:12.680Z,12.80
2018-10-16T20:29:12.657Z,12.80
2018-10-16T20:30:12.645Z,12.20
2018-10-16T20:31:12.738Z,12.40
2018-10-16T20:32:12.610Z,12.20
2018-10-16T20:33:12.594Z,11.90
2018-10-16T20:34:12.573Z,12.00
2018-10-16T20:35:12.556Z,12.10
2018-10-16T20:36:12.556Z,12.70
2018-10-16T20:37:12.590Z,12.50
2018-10-16T20:38:12.509Z,11.70
2018-10-16T20:39:12.491Z,13.20
2018-10-16T20:40:12.472Z,12.80
2018-10-16T20:41:12.479Z,13.00
2018-10-16T20:42:12.579Z,12.50
2018-10-16T20:43:12.504Z,12.30
2018-10-16T20:44:12.402Z,13.00
2018-10-16T20:45:12.386Z,13.30
2018-10-16T20:46:12.376Z,14.00
2018-10-16T20:47:12.368Z,13.20
2018-10-16T20:48:12.333Z,14.20
2018-10-16T20:49:12.371Z,13.60
2018-10-16T20:50:12.303Z,14.20
2018-10-16T20:51:12.287Z,14.30
2018-10-16T20:52:12.291Z,14.50
2018-10-16T20:53:12.256Z,14.70
2018-10-16T20:54:12.233Z,14.20
2018-10-16T20:55:12.285Z,14.60
2018-10-16T20:56:12.202Z,14.60
2018-10-16T20:57:12.192Z,14.80
2018-10-16T20:58:12.164Z,14.60
2018-10-16T20:59:12.147Z,14.60
2018-10-16T21:00:12.130Z,14.60
2018-10-16T21:01:12.205Z,14.30
2018-10-16T21:02:12.119Z,13.80
2018-10-16T21:03:12.083Z,14.30
2018-10-16T21:04:12.062Z,14.40
2018-10-16T21:05:12.161Z,14.90
2018-10-16T21:06:12.261Z,14.50
2018-10-16T21:07:12.039Z,14.50
2018-10-16T21:08:12.012Z,14.10
2018-10-16T21:09:11.982Z,14.20
2018-10-16T21:10:11.960Z,14.40
2018-10-16T21:11:11.971Z,14.20
2018-10-16T21:12:11.923Z,14.70
2018-10-16T21:13:11.976Z,14.70
2018-10-16T21:14:11.888Z,15.20
2018-10-16T21:15:11.876Z,16.70
2018-10-16T21:16:11.856Z,16.10
2018-10-16T21:17:11.835Z,16.40
2018-10-16T21:18:11.859Z,16.90
2018-10-16T21:19:11.876Z,17.30
2018-10-16T21:20:11.786Z,16.70
2018-10-16T21:21:11.779Z,17.20
2018-10-16T21:22:11.758Z,17.10
2018-10-16T21:23:11.853Z,16.10
2018-10-16T21:24:11.729Z,16.10
2018-10-16T21:25:11.817Z,14.90
2018-10-16T21:26:11.683Z,15.80
2018-10-16T21:27:11.661Z,16.20
2018-10-16T21:28:11.663Z,16.40
2018-10-16T21:29:11.685Z,16.00
2018-10-16T21:30:11.611Z,15.90
2018-10-16T21:31:11.612Z,15.00
2018-10-16T21:32:11.577Z,15.60
2018-10-16T21:33:11.573Z,15.60
2018-10-16T21:34:11.541Z,14.90
2018-10-16T21:35:11.663Z,15.80
2018-10-16T21:36:11.509Z,15.50
2018-10-16T21:37:11.521Z,15.50
2018-10-16T21:38:11.487Z,15.10
2018-10-16T21:39:11.484Z,14.90
2018-10-16T21:40:11.435Z,15.50
2018-10-16T21:41:11.476Z,15.00
2018-10-16T21:42:11.415Z,14.70
2018-10-16T21:43:11.483Z,14.20
2018-10-16T21:44:11.366Z,15.30
2018-10-16T21:45:11.349Z,14.60
2018-10-16T21:46:11.335Z,15.10
2018-10-16T21:47:11.358Z,15.40
2018-10-16T21:48:11.309Z,14.90
2018-10-16T21:49:11.367Z,14.70
2018-10-16T21:50:11.260Z,14.50
2018-10-16T21:51:11.264Z,15.00
2018-10-16T21:52:11.222Z,14.40
2018-10-16T21:53:11.315Z,15.50
2018-10-16T21:54:11.187Z,14.80
2018-10-16T21:55:11.251Z,15.20
2018-10-16T21:56:11.152Z,14.20
2018-10-16T21:57:11.134Z,15.40
2018-10-16T21:58:11.133Z,14.60
2018-10-16T21:59:11.109Z,15.10
2018-10-16T22:00:11.081Z,15.50
2018-10-16T22:01:11.182Z,14.60
2018-10-16T22:02:11.044Z,14.50
2018-10-16T22:03:11.065Z,15.10
2018-10-16T22:04:11.052Z,15.00
2018-10-16T22:05:11.068Z,15.50
2018-10-16T22:06:10.973Z,15.20
2018-10-16T22:07:10.964Z,15.70
2018-10-16T22:08:10.967Z,15.50
2018-10-16T22:09:10.921Z,15.60
2018-10-16T22:10:10.901Z,16.10
2018-10-16T22:11:10.910Z,16.50
2018-10-16T22:12:10.879Z,16.60
2018-10-16T22:13:10.915Z,15.80
2018-10-16T22:14:10.831Z,16.80
2018-10-16T22:15:10.887Z,15.30
2018-10-16T22:16:10.797Z,16.50
2018-10-16T22:17:10.837Z,15.00
2018-10-16T22:18:10.774Z,15.50
2018-10-16T22:19:10.813Z,16.10
2018-10-16T22:20:10.731Z,16.20
2018-10-16T22:21:10.706Z,15.60
2018-10-16T22:22:10.684Z,16.40
2018-10-16T22:23:10.712Z,15.90
2018-10-16T22:24:10.657Z,16.20
2018-10-16T22:25:10.663Z,15.20
2018-10-16T22:26:10.614Z,15.90
2018-10-16T22:27:10.596Z,16.70
2018-10-16T22:28:10.595Z,15.60
2018-10-16T22:29:10.609Z,15.40
2018-10-16T22:30:10.544Z,14.80
2018-10-16T22:31:10.560Z,16.10
2018-10-16T22:32:10.510Z,15.30
2018-10-16T22:33:10.503Z,15.50
2018-10-16T22:34:10.474Z,15.90
2018-10-16T22:35:10.486Z,16.00
2018-10-16T22:36:10.443Z,15.70
2018-10-16T22:37:10.521Z,15.80
2018-10-16T22:38:10.410Z,16.30
2018-10-16T22:39:10.385Z,16.90
2018-10-16T22:40:10.408Z,16.60
2018-10-16T22:41:10.409Z,15.90
2018-10-16T22:42:10.327Z,15.40
2018-10-16T22:43:10.414Z,16.00
2018-10-16T22:44:10.300Z,16.70
2018-10-16T22:45:10.271Z,16.40
